createdAt,value
2022-08-03T00:01:49.111Z,24.33
2022-08-03T00:04:15.648Z,24.21
2022-08-03T00:06:42.484Z,24.28
2022-08-03T00:09:09.327Z,24.27
2022-08-03T00:11:37.642Z,24.21
2022-08-03T00:14:05.996Z,24.16
2022-08-03T00:16:32.605Z,24.11
2022-08-03T00:19:00.749Z,24.04
2022-08-03T00:21:28.352Z,23.94
2022-08-03T00:23:54.883Z,23.99
2022-08-03T00:26:21.933Z,23.79
2022-08-03T00:28:49.474Z,23.85
2022-08-03T00:31:16.236Z,23.95
2022-08-03T00:33:58.959Z,23.97
2022-08-03T00:36:27.730Z,23.86
2022-08-03T00:38:54.875Z,23.82
2022-08-03T00:41:21.412Z,23.79
2022-08-03T00:43:48.237Z,23.73
2022-08-03T00:46:20.566Z,23.69
2022-08-03T00:48:51.081Z,23.56
2022-08-03T00:51:19.834Z,23.58
2022-08-03T00:53:46.472Z,23.51
2022-08-03T00:56:15.206Z,23.47
2022-08-03T00:58:44.400Z,23.48
2022-08-03T01:01:12.310Z,23.40
2022-08-03T01:03:39.158Z,23.44
2022-08-03T01:06:33.870Z,23.55
2022-08-03T01:09:09.105Z,23.51
2022-08-03T01:12:00.299Z,23.46
2022-08-03T01:14:34.285Z,23.35
2022-08-03T01:17:29.157Z,23.42
2022-08-03T01:20:14.915Z,23.36
2022-08-03T01:23:10.639Z,23.29
2022-08-03T01:26:10.519Z,23.26
2022-08-03T01:29:16.529Z,23.26
2022-08-03T01:32:53.494Z,23.14
2022-08-03T01:34:43.579Z,23.14
2022-08-03T01:37:12.458Z,23.05
2022-08-03T01:39:41.435Z,23.06
2022-08-03T01:42:11.481Z,23.06
2022-08-03T01:44:41.490Z,23.01
2022-08-03T01:47:10.655Z,23.02
2022-08-03T01:49:40.647Z,22.98
2022-08-03T01:52:08.860Z,22.90
2022-08-03T01:54:44.137Z,22.85
2022-08-03T01:57:11.644Z,22.77
2022-08-03T01:59:40.040Z,22.76
2022-08-03T02:02:28.351Z,22.79
2022-08-03T02:04:57.553Z,22.77
2022-08-03T02:07:25.819Z,22.67
2022-08-03T02:09:54.260Z,22.70
2022-08-03T02:12:23.923Z,22.65
2022-08-03T02:14:51.704Z,22.61
2022-08-03T02:17:39.070Z,22.59
2022-08-03T02:20:08.407Z,22.57
2022-08-03T02:22:35.922Z,22.55
2022-08-03T02:25:02.549Z,22.56
2022-08-03T02:27:31.309Z,22.45
2022-08-03T02:30:10.001Z,22.53
2022-08-03T02:32:40.170Z,22.49
2022-08-03T02:35:12.570Z,22.41
2022-08-03T02:37:49.820Z,22.40
2022-08-03T02:40:20.240Z,22.28
2022-08-03T02:42:49.322Z,22.19
2022-08-03T02:45:18.249Z,22.31
2022-08-03T02:47:53.178Z,22.26
2022-08-03T02:50:21.881Z,22.25
2022-08-03T02:52:49.817Z,22.22
2022-08-03T02:55:19.568Z,22.13
2022-08-03T02:57:47.357Z,22.15
2022-08-03T03:00:27.695Z,22.13
2022-08-03T03:02:58.891Z,22.10
2022-08-03T03:05:55.966Z,22.09
2022-08-03T03:08:17.623Z,22.08
2022-08-03T03:10:46.210Z,22.07
2022-08-03T03:13:15.080Z,22.06
2022-08-03T03:15:43.438Z,22.00
2022-08-03T03:18:11.175Z,21.95
2022-08-03T03:20:40.778Z,21.99
2022-08-03T03:23:08.924Z,21.95
2022-08-03T03:25:36.125Z,21.82
2022-08-03T03:28:03.822Z,21.88
2022-08-03T03:30:34.126Z,21.86
2022-08-03T03:33:00.818Z,21.84
2022-08-03T03:35:27.930Z,21.84
2022-08-03T03:37:55.136Z,21.73
2022-08-03T03:40:22.531Z,21.74
2022-08-03T03:42:50.322Z,21.73
2022-08-03T03:45:17.764Z,21.67
2022-08-03T03:47:44.384Z,21.64
2022-08-03T03:50:11.084Z,21.59
2022-08-03T03:52:37.684Z,21.59
2022-08-03T03:55:04.477Z,21.45
2022-08-03T03:57:31.001Z,21.52
2022-08-03T03:59:57.740Z,21.35
2022-08-03T04:02:24.481Z,21.37
2022-08-03T04:05:09.969Z,21.48
2022-08-03T04:08:14.564Z,21.50
2022-08-03T04:10:58.531Z,21.49
2022-08-03T04:13:30.933Z,21.40
2022-08-03T04:15:58.862Z,21.30
2022-08-03T04:18:27.970Z,21.35
2022-08-03T04:21:01.462Z,21.36
2022-08-03T04:23:30.740Z,21.21
2022-08-03T04:25:59.251Z,21.19
2022-08-03T04:28:30.854Z,21.27
2022-08-03T04:31:01.136Z,21.24
2022-08-03T04:33:32.471Z,21.22
2022-08-03T04:36:02.959Z,21.48
2022-08-03T04:38:32.698Z,21.21
2022-08-03T04:41:00.599Z,21.18
2022-08-03T04:43:28.128Z,21.20
2022-08-03T04:45:55.713Z,21.23
2022-08-03T04:48:22.548Z,21.11
2022-08-03T04:50:49.143Z,21.22
2022-08-03T04:53:16.414Z,21.17
2022-08-03T04:55:42.999Z,21.17
2022-08-03T04:58:09.600Z,21.22
2022-08-03T05:00:36.091Z,21.15
2022-08-03T05:03:02.744Z,21.25
2022-08-03T05:05:48.962Z,21.29
2022-08-03T05:08:16.089Z,21.10
2022-08-03T05:10:47.363Z,21.00
2022-08-03T05:13:14.515Z,21.19
2022-08-03T05:15:43.131Z,21.20
2022-08-03T05:18:13.938Z,21.19
2022-08-03T05:20:41.071Z,21.10
2022-08-03T05:23:07.647Z,21.09
2022-08-03T05:25:34.211Z,21.10
2022-08-03T05:28:00.753Z,21.21
2022-08-03T05:30:33.967Z,21.14
2022-08-03T05:33:02.389Z,21.22
2022-08-03T05:36:00.849Z,21.22
2022-08-03T05:38:23.993Z,21.22
2022-08-03T05:40:57.602Z,21.35
2022-08-03T05:43:43.171Z,21.38
2022-08-03T05:46:12.425Z,21.28
2022-08-03T05:48:39.971Z,21.35
2022-08-03T05:51:11.023Z,21.28
2022-08-03T05:53:42.592Z,21.32
2022-08-03T05:56:14.018Z,21.27
2022-08-03T05:58:44.061Z,21.32
2022-08-03T06:01:10.614Z,21.31
2022-08-03T06:03:37.177Z,21.28
2022-08-03T06:06:03.740Z,21.32
2022-08-03T06:08:30.285Z,21.32
2022-08-03T06:10:56.799Z,21.32
2022-08-03T06:13:23.313Z,21.42
2022-08-03T06:15:49.833Z,21.47
2022-08-03T06:18:16.388Z,21.46
2022-08-03T06:20:42.959Z,21.46
2022-08-03T06:23:09.507Z,21.45
2022-08-03T06:25:43.185Z,21.55
2022-08-03T06:28:15.085Z,21.54
2022-08-03T06:30:46.741Z,21.56
2022-08-03T06:33:16.727Z,21.66
2022-08-03T06:35:43.235Z,21.61
2022-08-03T06:38:12.894Z,21.63
2022-08-03T06:40:42.097Z,21.68
2022-08-03T06:43:12.592Z,21.64
2022-08-03T06:45:39.421Z,21.71
2022-08-03T06:48:07.359Z,21.74
2022-08-03T06:50:35.442Z,21.82
2022-08-03T06:53:02.299Z,21.86
2022-08-03T06:55:28.881Z,21.85
2022-08-03T06:57:55.888Z,21.84
2022-08-03T07:00:28.073Z,21.83
2022-08-03T07:02:58.060Z,21.81
2022-08-03T07:05:25.209Z,21.83
2022-08-03T07:07:55.656Z,21.92
2022-08-03T07:10:22.169Z,21.89
2022-08-03T07:12:56.006Z,21.95
2022-08-03T07:15:55.633Z,22.02
2022-08-03T07:18:09.995Z,22.04
2022-08-03T07:20:36.667Z,21.95
2022-08-03T07:23:03.221Z,22.08
2022-08-03T07:25:29.716Z,22.08
2022-08-03T07:27:56.347Z,22.14
2022-08-03T07:30:23.479Z,22.23
2022-08-03T07:32:50.618Z,22.24
2022-08-03T07:35:24.755Z,22.33
2022-08-03T07:37:54.555Z,22.35
2022-08-03T07:40:22.803Z,22.34
2022-08-03T07:42:52.171Z,22.39
2022-08-03T07:45:23.207Z,22.42
2022-08-03T07:47:53.494Z,22.53
2022-08-03T07:50:21.117Z,22.55
2022-08-03T07:52:47.876Z,22.55
2022-08-03T07:55:15.107Z,22.66
2022-08-03T07:57:41.658Z,22.72
2022-08-03T08:00:15.899Z,22.79
2022-08-03T08:02:43.257Z,22.85
2022-08-03T08:05:10.925Z,22.93
2022-08-03T08:07:38.554Z,22.97
2022-08-03T08:10:06.896Z,23.01
2022-08-03T08:12:33.705Z,23.06
2022-08-03T08:15:00.229Z,23.10
2022-08-03T08:17:27.018Z,23.17
2022-08-03T08:19:53.807Z,23.18
2022-08-03T08:22:29.694Z,23.29
2022-08-03T08:24:56.843Z,23.40
2022-08-03T08:27:23.603Z,23.44
2022-08-03T08:29:54.266Z,23.44
2022-08-03T08:32:23.228Z,23.53
2022-08-03T08:34:49.884Z,23.58
2022-08-03T08:37:16.427Z,23.66
2022-08-03T08:39:42.937Z,23.75
2022-08-03T08:42:10.248Z,23.79
2022-08-03T08:44:36.885Z,23.88
2022-08-03T08:47:04.087Z,23.94
2022-08-03T08:49:32.931Z,24.06
2022-08-03T08:52:01.676Z,24.04
2022-08-03T08:54:32.396Z,24.13
2022-08-03T08:57:02.723Z,24.22
2022-08-03T08:59:48.346Z,24.26
2022-08-03T09:02:16.442Z,24.31
2022-08-03T09:04:45.493Z,24.47
2022-08-03T09:07:20.165Z,24.46
2022-08-03T09:10:07.598Z,24.56
2022-08-03T09:12:44.895Z,24.64
2022-08-03T09:15:24.536Z,24.67
2022-08-03T09:17:56.206Z,24.76
2022-08-03T09:20:29.514Z,24.85
2022-08-03T09:22:56.016Z,24.92
2022-08-03T09:25:29.131Z,25.02
2022-08-03T09:28:05.284Z,25.13
2022-08-03T09:30:34.352Z,25.11
2022-08-03T09:33:08.424Z,25.17
2022-08-03T09:35:54.446Z,25.26
2022-08-03T09:38:25.924Z,25.46
2022-08-03T09:40:58.851Z,25.45
2022-08-03T09:43:27.484Z,25.57
2022-08-03T09:46:03.915Z,25.79
2022-08-03T09:48:31.598Z,25.84
2022-08-03T09:51:12.865Z,26.01
2022-08-03T09:53:58.549Z,25.95
2022-08-03T09:56:38.540Z,26.04
2022-08-03T09:59:05.152Z,26.19
2022-08-03T10:01:35.930Z,26.19
2022-08-03T10:04:04.985Z,26.22
2022-08-03T10:06:32.029Z,26.24
2022-08-03T10:09:10.892Z,26.35
2022-08-03T10:11:41.768Z,26.36
2022-08-03T10:14:10.936Z,26.50
2022-08-03T10:16:40.430Z,26.54
2022-08-03T10:19:08.333Z,26.64
2022-08-03T10:21:37.770Z,26.78
2022-08-03T10:24:06.622Z,26.82
2022-08-03T10:26:35.889Z,26.83
2022-08-03T10:29:12.894Z,26.92
2022-08-03T10:31:54.722Z,27.08
2022-08-03T10:34:26.976Z,27.27
2022-08-03T10:36:58.730Z,27.33
2022-08-03T10:39:28.773Z,27.31
2022-08-03T10:41:58.687Z,27.40
2022-08-03T10:44:32.560Z,27.41
2022-08-03T10:46:59.775Z,27.39
2022-08-03T10:49:34.973Z,27.41
2022-08-03T10:52:12.867Z,27.45
2022-08-03T10:55:07.567Z,27.62
2022-08-03T10:57:58.455Z,27.77
2022-08-03T11:00:27.835Z,27.84
2022-08-03T11:03:04.023Z,27.91
2022-08-03T11:05:33.406Z,28.06
2022-08-03T11:08:27.989Z,28.21
2022-08-03T11:11:00.196Z,28.21
2022-08-03T11:13:30.861Z,28.34
2022-08-03T11:16:02.244Z,28.45
2022-08-03T11:18:30.447Z,28.44
2022-08-03T11:20:59.746Z,28.39
2022-08-03T11:24:03.321Z,28.46
2022-08-03T11:26:32.894Z,28.47
2022-08-03T11:29:29.798Z,28.71
2022-08-03T11:31:56.522Z,28.82
2022-08-03T11:34:24.321Z,28.83
2022-08-03T11:37:20.883Z,28.92
2022-08-03T11:39:49.434Z,28.89
2022-08-03T11:42:21.973Z,29.16
2022-08-03T11:44:50.317Z,29.03
2022-08-03T11:47:17.926Z,29.15
2022-08-03T11:49:47.239Z,29.27
2022-08-03T11:52:14.301Z,29.41
2022-08-03T11:54:40.889Z,29.60
2022-08-03T11:57:07.482Z,29.66
2022-08-03T11:59:34.995Z,29.64
2022-08-03T12:02:08.041Z,29.72
2022-08-03T12:04:54.384Z,29.83
2022-08-03T12:08:02.264Z,29.82
2022-08-03T12:10:15.539Z,29.85
2022-08-03T12:12:46.429Z,29.81
2022-08-03T12:15:13.727Z,29.88
2022-08-03T12:17:41.407Z,30.06
2022-08-03T12:20:10.220Z,30.13
2022-08-03T12:22:38.914Z,30.20
2022-08-03T12:25:09.936Z,30.34
2022-08-03T12:27:36.947Z,30.43
2022-08-03T12:30:04.575Z,30.55
2022-08-03T12:32:31.373Z,30.42
2022-08-03T12:35:04.445Z,30.48
2022-08-03T12:37:31.715Z,30.60
2022-08-03T12:40:07.954Z,30.64
2022-08-03T12:42:39.533Z,30.58
2022-08-03T12:45:28.827Z,30.56
2022-08-03T12:47:57.956Z,30.63
2022-08-03T12:50:35.449Z,30.68
2022-08-03T12:53:04.751Z,30.74
2022-08-03T12:55:56.388Z,30.76
2022-08-03T12:58:43.424Z,30.91
2022-08-03T13:01:10.860Z,30.91
2022-08-03T13:03:50.260Z,31.00
2022-08-03T13:06:22.322Z,31.02
2022-08-03T13:08:49.988Z,31.07
2022-08-03T13:11:20.542Z,31.10
2022-08-03T13:13:47.120Z,31.29
2022-08-03T13:16:18.990Z,31.40
2022-08-03T13:18:48.957Z,31.53
2022-08-03T13:21:20.331Z,31.59
2022-08-03T13:23:47.169Z,31.51
2022-08-03T13:26:13.780Z,31.59
2022-08-03T13:28:40.305Z,31.66
2022-08-03T13:31:07.072Z,31.54
2022-08-03T13:33:33.785Z,31.47
2022-08-03T13:36:00.416Z,31.31
2022-08-03T13:38:27.382Z,31.25
2022-08-03T13:40:55.115Z,31.21
2022-08-03T13:43:22.464Z,31.27
2022-08-03T13:45:52.530Z,31.47
2022-08-03T13:48:36.782Z,31.60
2022-08-03T13:51:11.626Z,31.52
2022-08-03T13:53:50.732Z,31.81
2022-08-03T13:56:17.231Z,31.73
2022-08-03T13:58:43.803Z,31.62
2022-08-03T14:01:10.347Z,31.41
2022-08-03T14:03:37.043Z,31.53
2022-08-03T14:06:03.616Z,31.55
2022-08-03T14:08:30.148Z,31.41
2022-08-03T14:10:56.667Z,31.41
2022-08-03T14:13:23.190Z,31.61
2022-08-03T14:15:51.253Z,31.85
2022-08-03T14:18:28.305Z,31.82
2022-08-03T14:21:00.669Z,31.85
2022-08-03T14:23:32.304Z,32.03
2022-08-03T14:25:59.446Z,32.09
2022-08-03T14:28:26.001Z,32.36
2022-08-03T14:30:53.732Z,32.56
2022-08-03T14:33:23.127Z,32.77
2022-08-03T14:35:49.700Z,32.76
2022-08-03T14:38:16.681Z,32.48
2022-08-03T14:40:43.326Z,32.28
2022-08-03T14:43:10.059Z,32.42
2022-08-03T14:45:36.552Z,32.90
2022-08-03T14:50:30.563Z,33.08
2022-08-03T14:50:52.455Z,33.12
2022-08-03T14:53:19.754Z,33.10
2022-08-03T14:55:49.783Z,32.96
2022-08-03T14:58:19.678Z,33.17
2022-08-03T15:00:49.432Z,33.12
2022-08-03T15:03:20.267Z,33.44
2022-08-03T15:05:47.220Z,33.37
2022-08-03T15:08:13.858Z,33.45
2022-08-03T15:10:44.758Z,33.50
2022-08-03T15:13:13.058Z,33.64
2022-08-03T15:15:40.258Z,33.78
2022-08-03T15:18:06.828Z,33.68
2022-08-03T15:20:43.808Z,33.86
2022-08-03T15:23:12.380Z,33.94
2022-08-03T15:26:29.083Z,33.94
2022-08-03T15:28:25.465Z,33.89
2022-08-03T15:30:52.981Z,33.95
2022-08-03T15:33:19.826Z,33.92
2022-08-03T15:35:47.399Z,34.00
2022-08-03T15:38:13.930Z,34.13
2022-08-03T15:40:40.458Z,33.89
2022-08-03T15:43:07.309Z,34.07
2022-08-03T15:45:36.069Z,34.16
2022-08-03T15:48:04.614Z,34.21
2022-08-03T15:50:31.224Z,34.16
2022-08-03T15:52:57.782Z,34.00
2022-08-03T15:55:24.391Z,33.67
2022-08-03T15:59:03.617Z,33.59
2022-08-03T16:00:37.576Z,33.75
2022-08-03T16:03:04.424Z,33.95
2022-08-03T16:05:31.080Z,34.13
2022-08-03T16:08:03.554Z,34.02
2022-08-03T16:10:30.831Z,33.92
2022-08-03T16:12:58.884Z,33.85
2022-08-03T16:15:25.665Z,33.86
2022-08-03T16:17:52.276Z,33.87
2022-08-03T16:20:30.844Z,33.87
2022-08-03T16:23:10.899Z,33.93
2022-08-03T16:25:42.012Z,34.18
2022-08-03T16:28:13.719Z,34.40
2022-08-03T16:30:42.378Z,34.38
2022-08-03T16:33:09.668Z,34.70
2022-08-03T16:35:36.268Z,34.80
2022-08-03T16:38:09.271Z,34.80
2022-08-03T16:40:36.574Z,34.83
2022-08-03T16:43:18.274Z,35.13
2022-08-03T16:45:47.256Z,35.20
2022-08-03T16:48:15.064Z,35.08
2022-08-03T16:50:41.825Z,35.13
2022-08-03T16:53:09.818Z,35.15
2022-08-03T16:55:49.065Z,35.17
2022-08-03T16:58:34.665Z,35.40
2022-08-03T17:01:24.120Z,35.06
2022-08-03T17:04:02.700Z,35.01
2022-08-03T17:06:35.357Z,34.71
2022-08-03T17:09:11.681Z,34.87
2022-08-03T17:11:43.979Z,34.89
2022-08-03T17:14:14.717Z,34.98
2022-08-03T17:16:53.075Z,35.16
2022-08-03T17:19:24.836Z,35.05
2022-08-03T17:21:59.323Z,35.18
2022-08-03T17:24:32.321Z,35.21
2022-08-03T17:27:09.031Z,35.27
2022-08-03T17:29:51.633Z,35.23
2022-08-03T17:32:21.484Z,35.16
2022-08-03T17:34:49.137Z,35.18
2022-08-03T17:37:22.095Z,35.11
2022-08-03T17:40:03.937Z,34.97
2022-08-03T17:42:33.029Z,34.84
2022-08-03T17:45:02.267Z,34.85
2022-08-03T17:47:41.241Z,34.77
2022-08-03T17:50:23.439Z,34.65
2022-08-03T17:53:07.236Z,34.74
2022-08-03T17:55:55.385Z,34.61
2022-08-03T17:58:42.172Z,34.52
2022-08-03T18:02:00.501Z,34.40
2022-08-03T18:04:32.977Z,34.33
2022-08-03T18:07:11.694Z,34.26
2022-08-03T18:10:06.010Z,34.11
2022-08-03T18:12:28.893Z,34.03
2022-08-03T18:15:08.718Z,33.95
2022-08-03T18:17:55.129Z,33.76
2022-08-03T18:20:34.627Z,33.78
2022-08-03T18:23:09.256Z,33.43
2022-08-03T18:25:45.368Z,33.51
2022-08-03T18:28:18.930Z,33.46
2022-08-03T18:30:55.314Z,33.34
2022-08-03T18:34:19.721Z,33.23
2022-08-03T18:36:21.701Z,33.26
2022-08-03T18:38:57.244Z,33.19
2022-08-03T18:41:33.494Z,33.20
2022-08-03T18:44:08.323Z,32.97
2022-08-03T18:47:16.352Z,33.11
2022-08-03T18:50:04.973Z,32.91
2022-08-03T18:52:45.915Z,32.90
2022-08-03T18:55:33.230Z,32.86
2022-08-03T18:58:17.586Z,32.83
2022-08-03T19:00:58.415Z,32.73
2022-08-03T19:03:43.242Z,32.77
2022-08-03T19:06:19.802Z,32.70
2022-08-03T19:09:00.325Z,32.70
2022-08-03T19:12:13.154Z,32.54
2022-08-03T19:14:45.676Z,32.48
2022-08-03T19:17:13.999Z,32.32
2022-08-03T19:19:45.268Z,32.13
2022-08-03T19:22:15.881Z,32.22
2022-08-03T19:24:45.752Z,32.11
2022-08-03T19:27:13.015Z,32.10
2022-08-03T19:30:00.130Z,32.09
2022-08-03T19:32:32.905Z,32.02
2022-08-03T19:35:01.497Z,32.05
2022-08-03T19:37:38.422Z,31.96
2022-08-03T19:40:10.758Z,31.94
2022-08-03T19:42:42.494Z,31.88
2022-08-03T19:45:14.112Z,31.86
2022-08-03T19:47:56.383Z,31.85
2022-08-03T19:50:25.013Z,31.78
2022-08-03T19:52:52.571Z,31.72
2022-08-03T19:55:19.594Z,31.61
2022-08-03T19:57:49.068Z,31.61
2022-08-03T20:00:19.631Z,31.65
2022-08-03T20:02:47.199Z,31.41
2022-08-03T20:05:17.576Z,31.35
2022-08-03T20:07:47.834Z,31.21
2022-08-03T20:10:17.216Z,31.30
2022-08-03T20:12:44.308Z,31.23
2022-08-03T20:15:13.241Z,31.22
2022-08-03T20:17:54.570Z,31.15
2022-08-03T20:20:28.126Z,31.09
2022-08-03T20:22:58.065Z,31.08
2022-08-03T20:25:37.540Z,31.01
2022-08-03T20:28:14.193Z,31.05
2022-08-03T20:30:43.377Z,30.96
2022-08-03T20:33:10.083Z,30.85
2022-08-03T20:35:36.805Z,30.85
2022-08-03T20:38:03.361Z,30.70
2022-08-03T20:40:29.886Z,30.79
2022-08-03T20:42:56.421Z,30.68
2022-08-03T20:46:00.052Z,30.66
2022-08-03T20:48:11.987Z,30.65
2022-08-03T20:50:43.576Z,30.58
2022-08-03T20:53:13.241Z,30.46
2022-08-03T20:55:47.584Z,30.46
2022-08-03T20:58:26.882Z,30.42
2022-08-03T21:00:55.655Z,30.28
2022-08-03T21:03:22.197Z,30.33
2022-08-03T21:05:53.639Z,30.26
2022-08-03T21:08:22.483Z,30.24
2022-08-03T21:10:52.398Z,30.18
2022-08-03T21:13:38.465Z,30.19
2022-08-03T21:16:14.165Z,30.04
2022-08-03T21:18:51.259Z,30.04
2022-08-03T21:21:20.409Z,29.94
2022-08-03T21:23:53.136Z,29.88
2022-08-03T21:26:23.017Z,29.84
2022-08-03T21:28:51.521Z,29.83
2022-08-03T21:31:25.213Z,29.73
2022-08-03T21:33:59.414Z,29.65
2022-08-03T21:36:27.675Z,29.61
2022-08-03T21:38:57.305Z,29.48
2022-08-03T21:41:26.419Z,29.45
2022-08-03T21:43:52.932Z,29.47
2022-08-03T21:46:20.247Z,29.47
2022-08-03T21:48:50.251Z,29.40
2022-08-03T21:51:19.257Z,29.35
2022-08-03T21:54:03.041Z,29.31
2022-08-03T21:56:41.443Z,29.31
2022-08-03T21:59:15.335Z,29.24
2022-08-03T22:01:42.979Z,29.17
2022-08-03T22:04:11.921Z,29.17
2022-08-03T22:06:57.685Z,29.07
2022-08-03T22:09:24.248Z,29.15
2022-08-03T22:11:53.997Z,29.14
2022-08-03T22:14:20.678Z,29.01
2022-08-03T22:16:49.028Z,28.98
2022-08-03T22:19:15.568Z,28.94
2022-08-03T22:21:46.786Z,28.87
2022-08-03T22:24:15.269Z,28.86
2022-08-03T22:27:02.959Z,28.87
2022-08-03T22:29:30.731Z,28.86
2022-08-03T22:31:59.360Z,28.86
2022-08-03T22:34:27.440Z,28.80
2022-08-03T22:37:01.389Z,28.75
2022-08-03T22:39:29.775Z,28.68
2022-08-03T22:41:58.874Z,28.75
2022-08-03T22:44:26.851Z,28.67
2022-08-03T22:46:53.659Z,28.53
2022-08-03T22:49:20.766Z,28.51
2022-08-03T22:51:48.271Z,28.51
2022-08-03T22:54:16.508Z,28.35
2022-08-03T22:56:47.664Z,28.39
2022-08-03T22:59:40.633Z,28.37
2022-08-03T23:02:20.462Z,28.27
2022-08-03T23:04:56.445Z,28.26
2022-08-03T23:07:35.457Z,28.24
2022-08-03T23:10:05.437Z,28.19
2022-08-03T23:12:35.064Z,28.12
2022-08-03T23:15:04.740Z,28.11
2022-08-03T23:17:32.427Z,28.07
2022-08-03T23:20:09.204Z,27.99
2022-08-03T23:22:39.060Z,27.87
2022-08-03T23:25:10.673Z,27.81
2022-08-03T23:27:42.009Z,27.73
2022-08-03T23:30:10.049Z,27.64
2022-08-03T23:32:37.189Z,27.67
2022-08-03T23:36:29.421Z,27.72
2022-08-03T23:38:22.397Z,27.73
2022-08-03T23:40:51.244Z,27.59
2022-08-03T23:43:51.236Z,27.63
2022-08-03T23:46:07.753Z,27.66
2022-08-03T23:48:34.731Z,27.62
2022-08-03T23:51:13.140Z,27.58
2022-08-03T23:53:45.375Z,27.59
2022-08-03T23:56:23.760Z,27.52
2022-08-03T23:58:52.839Z,27.51
